createdAt,value
2023-05-09T00:00:00.180Z,1021.9
2023-05-09T00:05:00.141Z,1021.8
2023-05-09T00:10:00.127Z,1021.7
2023-05-09T00:15:00.131Z,1021.8
2023-05-09T00:20:00.175Z,1021.8
2023-05-09T00:25:00.147Z,1021.6
2023-05-09T00:30:00.150Z,1021.7
2023-05-09T00:35:00.109Z,1021.7
2023-05-09T00:40:00.121Z,1021.7
2023-05-09T00:45:00.130Z,1021.7
2023-05-09T00:50:00.162Z,1021.7
2023-05-09T00:55:00.144Z,1021.5
2023-05-09T01:00:00.099Z,1021.4
2023-05-09T01:05:00.130Z,1021.5
2023-05-09T01:10:00.109Z,1021.3
2023-05-09T01:15:00.118Z,1021.4
2023-05-09T01:20:00.168Z,1021.4
2023-05-09T01:25:00.128Z,1021.4
2023-05-09T01:30:00.159Z,1021.3
2023-05-09T01:35:00.136Z,1021.3
2023-05-09T01:40:00.199Z,1021.3
2023-05-09T01:45:00.099Z,1021.2
2023-05-09T01:50:00.159Z,1021.2
2023-05-09T01:55:00.118Z,1021.1
2023-05-09T02:00:00.135Z,1021.1
2023-05-09T02:05:00.177Z,1021.2
2023-05-09T02:10:00.108Z,1021.1
2023-05-09T02:15:00.114Z,1021
2023-05-09T02:20:00.215Z,1021.1
2023-05-09T02:25:00.103Z,1021.1
2023-05-09T02:30:00.100Z,1021
2023-05-09T02:35:00.099Z,1021
2023-05-09T02:40:00.133Z,1021.1
2023-05-09T02:45:00.116Z,1021
2023-05-09T02:50:00.171Z,1021.1
2023-05-09T02:55:00.136Z,1021.1
2023-05-09T03:00:00.151Z,1021
2023-05-09T03:05:00.099Z,1021
2023-05-09T03:10:00.154Z,1021
2023-05-09T03:15:00.126Z,1020.9
2023-05-09T03:20:03.166Z,1020.9
2023-05-09T03:25:00.104Z,1020.9
2023-05-09T03:30:00.139Z,1020.9
2023-05-09T03:35:00.112Z,1020.8
2023-05-09T03:40:00.147Z,1020.8
2023-05-09T03:45:00.131Z,1020.8
2023-05-09T03:50:00.143Z,1020.8
2023-05-09T03:55:00.150Z,1020.7
2023-05-09T04:00:00.174Z,1020.8
2023-05-09T04:05:00.132Z,1020.8
2023-05-09T04:10:00.141Z,1020.7
2023-05-09T04:15:00.136Z,1020.6
2023-05-09T04:20:00.187Z,1020.8
2023-05-09T04:25:00.105Z,1020.8
2023-05-09T04:30:00.150Z,1020.8
2023-05-09T04:35:00.169Z,1020.7
2023-05-09T04:40:00.122Z,1020.7
2023-05-09T04:45:00.149Z,1020.7
2023-05-09T04:50:00.193Z,1020.7
2023-05-09T04:55:00.137Z,1020.8
2023-05-09T05:00:00.120Z,1020.8
2023-05-09T05:05:10.971Z,1020.9
2023-05-09T05:10:00.126Z,1020.8
2023-05-09T05:15:00.115Z,1020.8
2023-05-09T05:20:00.174Z,1020.7
2023-05-09T05:25:00.156Z,1020.7
2023-05-09T05:30:00.125Z,1020.7
2023-05-09T05:35:00.114Z,1020.7
2023-05-09T05:40:00.120Z,1020.7
2023-05-09T05:45:00.116Z,1020.7
2023-05-09T05:50:00.190Z,1020.7
2023-05-09T05:55:00.138Z,1020.6
2023-05-09T06:00:00.154Z,1020.7
2023-05-09T06:05:00.129Z,1020.7
2023-05-09T06:10:00.182Z,1020.5
2023-05-09T06:15:00.111Z,1020.5
2023-05-09T06:20:00.156Z,1020.4
2023-05-09T06:25:00.138Z,1020.4
2023-05-09T06:30:01.419Z,1020.4
2023-05-09T06:35:00.144Z,1020.4
2023-05-09T06:40:00.137Z,1020.3
2023-05-09T06:45:00.153Z,1020.4
2023-05-09T06:50:00.138Z,1020.3
2023-05-09T06:55:00.098Z,1020.2
2023-05-09T07:00:00.174Z,1020.1
2023-05-09T07:05:00.191Z,1020.1
2023-05-09T07:10:10.393Z,1020
2023-05-09T07:15:00.154Z,1019.9
2023-05-09T07:20:00.150Z,1019.9
2023-05-09T07:25:00.131Z,1019.8
2023-05-09T07:30:00.155Z,1019.8
2023-05-09T07:35:00.134Z,1019.7
2023-05-09T07:40:00.139Z,1019.6
2023-05-09T07:45:00.098Z,1019.6
2023-05-09T07:50:00.149Z,1019.5
2023-05-09T07:55:00.158Z,1019.4
2023-05-09T08:00:00.129Z,1019.3
2023-05-09T08:05:00.104Z,1019.3
2023-05-09T08:10:00.121Z,1019.3
2023-05-09T08:15:00.112Z,1019.2
2023-05-09T08:20:00.149Z,1019.1
2023-05-09T08:25:00.131Z,1019.2
2023-05-09T08:30:00.118Z,1019.2
2023-05-09T08:35:00.127Z,1019.1
2023-05-09T08:40:00.134Z,1019
2023-05-09T08:45:00.138Z,1018.9
2023-05-09T08:50:00.099Z,1018.9
2023-05-09T08:55:00.134Z,1018.7
2023-05-09T09:00:00.147Z,1018.7
2023-05-09T09:05:00.129Z,1018.7
2023-05-09T09:10:00.169Z,1018.6
2023-05-09T09:15:00.137Z,1018.5
2023-05-09T09:20:00.220Z,1018.4
2023-05-09T09:25:00.117Z,1018.3
2023-05-09T09:30:00.158Z,1018.1
2023-05-09T09:35:00.156Z,1018
2023-05-09T09:40:00.150Z,1018
2023-05-09T09:45:00.106Z,1017.9
2023-05-09T09:50:00.169Z,1017.7
2023-05-09T09:55:00.116Z,1017.6
2023-05-09T10:00:00.126Z,1017.5
2023-05-09T10:05:00.167Z,1017.4
2023-05-09T10:10:00.172Z,1017.3
2023-05-09T10:15:00.135Z,1017.3
2023-05-09T10:20:00.148Z,1017.1
2023-05-09T10:25:00.179Z,1017.1
2023-05-09T10:30:00.119Z,1017
2023-05-09T10:35:00.113Z,1016.9
2023-05-09T10:40:00.145Z,1016.9
2023-05-09T10:45:00.154Z,1016.8
2023-05-09T10:50:00.136Z,1016.8
2023-05-09T10:55:00.116Z,1016.6
2023-05-09T11:00:00.103Z,1016.5
2023-05-09T11:05:00.135Z,1016.4
2023-05-09T11:10:00.131Z,1016.4
2023-05-09T11:15:00.103Z,1016.1
2023-05-09T11:20:00.185Z,1016
2023-05-09T11:25:00.115Z,1015.9
2023-05-09T11:30:00.108Z,1015.8
2023-05-09T11:35:00.115Z,1015.8
2023-05-09T11:40:00.139Z,1015.6
2023-05-09T11:45:00.141Z,1015.6
2023-05-09T11:50:00.105Z,1015.5
2023-05-09T11:55:00.155Z,1015.4
2023-05-09T12:00:00.105Z,1015.3
2023-05-09T12:05:00.113Z,1015.2
2023-05-09T12:10:00.221Z,1015.1
2023-05-09T12:15:00.120Z,1015
2023-05-09T12:20:00.114Z,1014.9
2023-05-09T12:25:00.139Z,1014.9
2023-05-09T12:30:00.132Z,1014.9
2023-05-09T12:35:00.109Z,1014.5
2023-05-09T12:40:00.131Z,1014.6
2023-05-09T12:45:00.104Z,1014.4
2023-05-09T12:50:00.117Z,1014.3
2023-05-09T12:55:00.114Z,1014.3
2023-05-09T13:00:00.262Z,1014.2
2023-05-09T13:05:00.131Z,1014.2
2023-05-09T13:10:00.189Z,1014.1
2023-05-09T13:15:00.143Z,1014.1
2023-05-09T13:20:00.153Z,1014
2023-05-09T13:25:00.144Z,1013.9
2023-05-09T13:30:00.122Z,1013.8
2023-05-09T13:35:00.140Z,1013.8
2023-05-09T13:40:00.144Z,1013.6
2023-05-09T13:45:00.128Z,1013.5
2023-05-09T13:50:00.125Z,1013.3
2023-05-09T13:55:00.126Z,1013.2
2023-05-09T14:00:00.135Z,1013.1
2023-05-09T14:05:00.127Z,1013
2023-05-09T14:10:16.146Z,1013
2023-05-09T14:15:00.120Z,1012.9
2023-05-09T14:20:00.139Z,1012.9
2023-05-09T14:25:00.166Z,1012.7
2023-05-09T14:30:00.144Z,1012.6
2023-05-09T14:35:00.199Z,1012.5
2023-05-09T14:40:00.144Z,1012.5
2023-05-09T14:45:00.106Z,1012.4
2023-05-09T14:50:00.148Z,1012.4
2023-05-09T14:55:00.113Z,1012.2
2023-05-09T15:00:12.726Z,1012.1
2023-05-09T15:05:00.145Z,1012.1
2023-05-09T15:10:00.137Z,1012
2023-05-09T15:15:00.175Z,1011.9
2023-05-09T15:20:00.160Z,1012
2023-05-09T15:25:00.153Z,1011.8
2023-05-09T15:30:00.145Z,1011.8
2023-05-09T15:35:00.115Z,1011.8
2023-05-09T15:40:00.134Z,1011.7
2023-05-09T15:45:00.146Z,1011.6
2023-05-09T15:50:00.173Z,1011.5
2023-05-09T15:55:00.223Z,1011.3
2023-05-09T16:00:00.108Z,1011.3
2023-05-09T16:05:00.136Z,1011.2
2023-05-09T16:10:00.221Z,1011.2
2023-05-09T16:15:00.154Z,1011.1
2023-05-09T16:20:00.110Z,1011
2023-05-09T16:25:00.179Z,1011.1
2023-05-09T16:30:00.173Z,1010.9
2023-05-09T16:35:00.125Z,1010.8
2023-05-09T16:40:00.211Z,1010.7
2023-05-09T16:45:00.119Z,1010.6
2023-05-09T16:50:00.224Z,1010.5
2023-05-09T16:55:00.123Z,1010.6
2023-05-09T17:00:00.171Z,1010.5
2023-05-09T17:05:00.159Z,1010.4
2023-05-09T17:10:00.200Z,1010.4
2023-05-09T17:15:00.126Z,1010.2
2023-05-09T17:20:00.166Z,1010.2
2023-05-09T17:25:00.133Z,1010.1
2023-05-09T17:30:00.174Z,1010.1
2023-05-09T17:35:00.138Z,1010.1
2023-05-09T17:40:00.141Z,1010
2023-05-09T17:45:00.151Z,1010
2023-05-09T17:50:00.179Z,1010
2023-05-09T17:55:00.126Z,1010.1
2023-05-09T18:00:00.106Z,1010
2023-05-09T18:05:00.135Z,1010.1
2023-05-09T18:10:00.125Z,1010
2023-05-09T18:15:00.165Z,1009.9
2023-05-09T18:20:00.124Z,1009.9
2023-05-09T18:25:00.117Z,1009.9
2023-05-09T18:30:00.121Z,1010
2023-05-09T18:35:00.122Z,1009.9
2023-05-09T18:40:00.212Z,1009.9
2023-05-09T18:45:00.133Z,1009.9
2023-05-09T18:50:02.456Z,1009.9
2023-05-09T18:55:00.111Z,1009.9
2023-05-09T19:00:00.168Z,1010
2023-05-09T19:05:00.139Z,1009.9
2023-05-09T19:10:00.101Z,1009.9
2023-05-09T19:15:00.125Z,1009.9
2023-05-09T19:20:00.135Z,1009.9
2023-05-09T19:25:00.162Z,1009.9
2023-05-09T19:30:00.129Z,1009.9
2023-05-09T19:35:00.126Z,1010.1
2023-05-09T19:40:00.198Z,1010.1
2023-05-09T19:45:00.138Z,1010
2023-05-09T19:50:00.149Z,1010.2
2023-05-09T19:55:00.165Z,1010.2
2023-05-09T20:00:00.130Z,1010.2
2023-05-09T20:05:00.165Z,1010.3
2023-05-09T20:10:00.147Z,1010.3
2023-05-09T20:15:00.109Z,1010.3
2023-05-09T20:20:00.162Z,1010.4
2023-05-09T20:25:00.099Z,1010.5
2023-05-09T20:30:00.177Z,1010.6
2023-05-09T20:35:00.232Z,1010.7
2023-05-09T20:40:00.120Z,1010.8
2023-05-09T20:45:00.116Z,1010.7
2023-05-09T20:50:00.163Z,1010.9
2023-05-09T20:55:00.150Z,1011
2023-05-09T21:00:00.135Z,1011.1
2023-05-09T21:05:00.114Z,1011
2023-05-09T21:10:00.157Z,1011
2023-05-09T21:15:00.140Z,1010.9
2023-05-09T21:20:00.151Z,1010.8
2023-05-09T21:25:00.152Z,1010.8
2023-05-09T21:30:00.206Z,1010.7
2023-05-09T21:35:00.113Z,1010.7
2023-05-09T21:40:00.134Z,1010.6
2023-05-09T21:45:00.139Z,1010.7
2023-05-09T21:50:00.123Z,1010.8
2023-05-09T21:55:00.104Z,1010.7
2023-05-09T22:00:00.119Z,1010.5
2023-05-09T22:05:00.161Z,1010.6
2023-05-09T22:10:00.159Z,1010.7
2023-05-09T22:15:00.120Z,1010.5
2023-05-09T22:20:00.119Z,1010.6
2023-05-09T22:25:00.219Z,1010.5
2023-05-09T22:30:00.145Z,1010.5
2023-05-09T22:35:00.124Z,1010.4
2023-05-09T22:40:00.158Z,1010.4
2023-05-09T22:45:00.151Z,1010.4
2023-05-09T22:50:00.153Z,1010.4
2023-05-09T22:55:00.134Z,1010.3
2023-05-09T23:00:00.136Z,1010.4
2023-05-09T23:05:00.144Z,1010.3
2023-05-09T23:10:00.158Z,1010.3
2023-05-09T23:15:00.137Z,1010.3
2023-05-09T23:20:00.128Z,1010.3
2023-05-09T23:25:00.131Z,1010.3
2023-05-09T23:30:00.157Z,1010.4
2023-05-09T23:35:00.138Z,1010.3
2023-05-09T23:40:00.173Z,1010.3
2023-05-09T23:45:00.120Z,1010.3
2023-05-09T23:50:00.163Z,1010.2
2023-05-09T23:55:00.190Z,1010.2
